createdAt,value
2022-12-01T00:01:31.270Z,5.39
2022-12-01T00:03:58.515Z,5.40
2022-12-01T00:06:25.934Z,5.44
2022-12-01T00:09:15.302Z,5.45
2022-12-01T00:11:48.853Z,5.46
2022-12-01T00:14:16.456Z,5.44
2022-12-01T00:16:44.615Z,5.45
2022-12-01T00:19:12.020Z,5.44
2022-12-01T00:21:39.228Z,5.43
2022-12-01T00:24:09.402Z,5.44
2022-12-01T00:26:38.890Z,5.41
2022-12-01T00:29:06.117Z,5.41
2022-12-01T00:31:33.546Z,5.41
2022-12-01T00:34:03.025Z,5.42
2022-12-01T00:36:32.181Z,5.39
2022-12-01T00:38:59.325Z,5.37
2022-12-01T00:41:26.899Z,5.35
2022-12-01T00:43:54.194Z,5.33
2022-12-01T00:46:21.729Z,5.32
2022-12-01T00:48:49.486Z,5.32
2022-12-01T00:51:16.685Z,5.32
2022-12-01T00:53:43.916Z,5.31
2022-12-01T00:56:11.195Z,5.31
2022-12-01T00:58:38.446Z,5.29
2022-12-01T01:01:05.963Z,5.29
2022-12-01T01:03:34.697Z,5.31
2022-12-01T01:06:13.284Z,5.33
2022-12-01T01:08:41.137Z,5.33
2022-12-01T01:11:09.644Z,5.32
2022-12-01T01:13:37.980Z,5.33
2022-12-01T01:16:14.760Z,5.32
2022-12-01T01:18:42.084Z,5.34
2022-12-01T01:21:17.654Z,5.35
2022-12-01T01:23:45.129Z,5.34
2022-12-01T01:26:27.661Z,5.34
2022-12-01T01:29:00.760Z,5.35
2022-12-01T01:31:31.268Z,5.35
2022-12-01T01:33:59.451Z,5.34
2022-12-01T01:36:27.755Z,5.35
2022-12-01T01:38:55.787Z,5.33
2022-12-01T01:41:24.666Z,5.35
2022-12-01T01:44:03.183Z,5.35
2022-12-01T01:46:35.119Z,5.34
2022-12-01T01:49:14.347Z,5.29
2022-12-01T01:51:53.467Z,5.28
2022-12-01T01:54:31.478Z,5.26
2022-12-01T01:57:02.400Z,5.25
2022-12-01T01:59:42.144Z,5.24
2022-12-01T02:02:12.830Z,5.24
2022-12-01T02:04:51.039Z,5.26
2022-12-01T02:07:19.822Z,5.29
2022-12-01T02:09:47.676Z,5.26
2022-12-01T02:13:02.233Z,5.25
2022-12-01T02:16:00.011Z,5.23
2022-12-01T02:18:57.216Z,5.21
2022-12-01T02:22:00.582Z,5.23
2022-12-01T02:25:13.256Z,5.21
2022-12-01T02:28:43.368Z,5.18
2022-12-01T02:31:43.107Z,5.19
2022-12-01T02:34:33.855Z,5.17
2022-12-01T02:37:47.886Z,5.16
2022-12-01T02:40:31.554Z,5.20
2022-12-01T02:43:41.927Z,5.19
2022-12-01T02:46:32.809Z,5.16
2022-12-01T02:49:10.426Z,5.18
2022-12-01T02:51:44.619Z,5.20
2022-12-01T02:54:15.681Z,5.19
2022-12-01T02:56:45.664Z,5.21
2022-12-01T02:59:15.234Z,5.21
2022-12-01T03:02:15.378Z,5.17
2022-12-01T03:05:23.805Z,5.18
2022-12-01T03:08:26.880Z,5.20
2022-12-01T03:10:58.590Z,5.21
2022-12-01T03:13:56.160Z,5.23
2022-12-01T03:16:29.116Z,5.18
2022-12-01T03:19:05.596Z,5.20
2022-12-01T03:21:48.199Z,5.23
2022-12-01T03:24:20.392Z,5.23
2022-12-01T03:26:57.796Z,5.24
2022-12-01T03:29:43.591Z,5.28
2022-12-01T03:32:24.748Z,5.28
2022-12-01T03:35:04.755Z,5.27
2022-12-01T03:37:48.005Z,5.29
2022-12-01T03:40:25.564Z,5.28
2022-12-01T03:43:13.052Z,5.30
2022-12-01T03:46:33.029Z,5.30
2022-12-01T03:49:00.663Z,5.29
2022-12-01T03:51:55.522Z,5.29
2022-12-01T03:55:13.110Z,5.31
2022-12-01T03:58:02.833Z,5.29
2022-12-01T04:00:31.796Z,5.29
2022-12-01T04:03:04.141Z,5.30
2022-12-01T04:05:34.991Z,5.27
2022-12-01T04:08:02.727Z,5.26
2022-12-01T04:10:30.064Z,5.25
2022-12-01T04:12:59.687Z,5.25
2022-12-01T04:15:28.134Z,5.22
2022-12-01T04:17:55.592Z,5.21
2022-12-01T04:20:23.124Z,5.21
2022-12-01T04:22:50.563Z,5.23
2022-12-01T04:25:17.911Z,5.23
2022-12-01T04:27:45.090Z,5.24
2022-12-01T04:30:13.184Z,5.27
2022-12-01T04:32:43.186Z,5.26
2022-12-01T04:35:13.027Z,5.26
2022-12-01T04:37:41.431Z,5.25
2022-12-01T04:40:10.223Z,5.22
2022-12-01T04:42:37.396Z,5.22
2022-12-01T04:45:05.322Z,5.21
2022-12-01T04:47:32.512Z,5.22
2022-12-01T04:50:00.536Z,5.21
2022-12-01T04:52:33.628Z,5.23
2022-12-01T04:55:04.028Z,5.23
2022-12-01T04:57:31.177Z,5.22
2022-12-01T04:59:58.373Z,5.21
2022-12-01T05:02:25.605Z,5.22
2022-12-01T05:04:52.953Z,5.20
2022-12-01T05:07:20.182Z,5.20
2022-12-01T05:09:47.736Z,5.18
2022-12-01T05:12:17.130Z,5.18
2022-12-01T05:14:44.298Z,5.17
2022-12-01T05:17:11.503Z,5.16
2022-12-01T05:19:57.363Z,5.16
2022-12-01T05:22:56.804Z,5.15
2022-12-01T05:25:11.703Z,5.13
2022-12-01T05:27:38.871Z,5.13
2022-12-01T05:30:07.330Z,5.15
2022-12-01T05:32:34.493Z,5.15
2022-12-01T05:35:01.709Z,5.14
2022-12-01T05:37:34.576Z,5.16
2022-12-01T05:40:02.286Z,5.18
2022-12-01T05:42:29.484Z,5.20
2022-12-01T05:44:56.818Z,5.18
2022-12-01T05:47:23.984Z,5.17
2022-12-01T05:49:51.562Z,5.16
2022-12-01T05:52:18.852Z,5.17
2022-12-01T05:54:46.003Z,5.17
2022-12-01T05:57:13.174Z,5.19
2022-12-01T05:59:40.363Z,5.24
2022-12-01T06:02:07.626Z,5.24
2022-12-01T06:04:35.020Z,5.27
2022-12-01T06:07:02.219Z,5.29
2022-12-01T06:09:29.402Z,5.26
2022-12-01T06:11:56.783Z,5.25
2022-12-01T06:14:24.506Z,5.27
2022-12-01T06:16:52.111Z,5.26
2022-12-01T06:19:19.382Z,5.26
2022-12-01T06:21:46.531Z,5.24
2022-12-01T06:24:13.740Z,5.25
2022-12-01T06:26:40.966Z,5.25
2022-12-01T06:29:10.702Z,5.28
2022-12-01T06:31:41.042Z,5.28
2022-12-01T06:34:08.446Z,5.26
2022-12-01T06:36:35.623Z,5.27
2022-12-01T06:39:10.145Z,5.27
2022-12-01T06:41:39.235Z,5.26
2022-12-01T06:44:06.528Z,5.29
2022-12-01T06:46:33.743Z,5.28
2022-12-01T06:49:00.925Z,5.28
2022-12-01T06:51:28.623Z,5.28
2022-12-01T06:53:59.743Z,5.27
2022-12-01T06:56:31.045Z,5.27
2022-12-01T06:58:58.666Z,5.26
2022-12-01T07:01:26.678Z,5.26
2022-12-01T07:03:54.829Z,5.26
2022-12-01T07:06:22.108Z,5.27
2022-12-01T07:08:49.429Z,5.26
2022-12-01T07:11:16.890Z,5.27
2022-12-01T07:13:49.476Z,5.29
2022-12-01T07:16:16.796Z,5.30
2022-12-01T07:18:45.101Z,5.30
2022-12-01T07:21:15.171Z,5.29
2022-12-01T07:23:43.646Z,5.26
2022-12-01T07:26:18.519Z,5.27
2022-12-01T07:28:46.156Z,5.24
2022-12-01T07:31:19.856Z,5.27
2022-12-01T07:33:47.198Z,5.27
2022-12-01T07:36:15.339Z,5.23
2022-12-01T07:38:42.764Z,5.18
2022-12-01T07:41:14.874Z,5.17
2022-12-01T07:43:42.796Z,5.15
2022-12-01T07:46:23.824Z,5.13
2022-12-01T07:48:53.912Z,5.12
2022-12-01T07:51:24.408Z,5.14
2022-12-01T07:53:53.861Z,5.11
2022-12-01T07:56:23.336Z,5.10
2022-12-01T07:58:51.444Z,5.11
2022-12-01T08:01:23.359Z,5.11
2022-12-01T08:03:56.691Z,5.11
2022-12-01T08:06:26.683Z,5.10
2022-12-01T08:08:54.028Z,5.13
2022-12-01T08:11:25.048Z,5.16
2022-12-01T08:13:53.980Z,5.18
2022-12-01T08:16:24.260Z,5.20
2022-12-01T08:18:51.886Z,5.20
2022-12-01T08:21:23.182Z,5.21
2022-12-01T08:23:58.260Z,5.21
2022-12-01T08:26:26.864Z,5.25
2022-12-01T08:28:54.064Z,5.24
2022-12-01T08:31:31.110Z,5.23
2022-12-01T08:33:58.702Z,5.24
2022-12-01T08:36:26.233Z,5.25
2022-12-01T08:38:55.957Z,5.28
2022-12-01T08:41:24.847Z,5.28
2022-12-01T08:44:01.306Z,5.24
2022-12-01T08:46:34.893Z,5.25
2022-12-01T08:49:05.750Z,5.24
2022-12-01T08:51:33.271Z,5.22
2022-12-01T08:54:01.377Z,5.19
2022-12-01T08:56:40.516Z,5.10
2022-12-01T08:59:08.455Z,5.11
2022-12-01T09:01:51.986Z,5.11
2022-12-01T09:04:25.851Z,5.07
2022-12-01T09:06:56.980Z,5.07
2022-12-01T09:09:29.369Z,5.08
2022-12-01T09:11:57.787Z,5.12
2022-12-01T09:14:24.970Z,5.11
2022-12-01T09:16:52.218Z,5.11
2022-12-01T09:19:24.528Z,5.11
2022-12-01T09:21:53.168Z,5.17
2022-12-01T09:24:20.392Z,5.17
2022-12-01T09:26:47.781Z,5.16
2022-12-01T09:29:16.983Z,5.24
2022-12-01T09:31:44.757Z,5.31
2022-12-01T09:34:18.192Z,5.31
2022-12-01T09:36:47.692Z,5.31
2022-12-01T09:39:20.651Z,5.33
2022-12-01T09:42:13.833Z,5.35
2022-12-01T09:44:53.750Z,5.37
2022-12-01T09:47:44.956Z,5.48
2022-12-01T09:50:23.946Z,5.53
2022-12-01T09:53:08.565Z,5.58
2022-12-01T09:55:36.504Z,5.68
2022-12-01T09:58:17.832Z,5.78
2022-12-01T10:00:46.998Z,5.87
2022-12-01T10:03:22.242Z,5.91
2022-12-01T10:06:26.765Z,6.02
2022-12-01T10:09:25.684Z,6.14
2022-12-01T10:12:06.735Z,6.24
2022-12-01T10:14:37.446Z,6.28
2022-12-01T10:17:40.445Z,6.34
2022-12-01T10:21:01.591Z,6.42
2022-12-01T10:24:06.783Z,6.50
2022-12-01T10:27:23.448Z,6.59
2022-12-01T10:30:29.089Z,6.67
2022-12-01T10:33:18.424Z,6.69
2022-12-01T10:35:45.925Z,6.70
2022-12-01T10:38:36.936Z,6.71
2022-12-01T10:41:12.323Z,6.77
2022-12-01T10:43:49.095Z,6.83
2022-12-01T10:46:41.329Z,6.88
2022-12-01T10:49:14.038Z,6.97
2022-12-01T10:51:58.156Z,7.08
2022-12-01T10:54:41.269Z,7.15
2022-12-01T10:57:17.788Z,7.16
2022-12-01T11:00:02.777Z,7.11
2022-12-01T11:02:32.575Z,7.08
2022-12-01T11:05:20.931Z,7.08
2022-12-01T11:07:49.799Z,7.06
2022-12-01T11:10:29.189Z,7.03
2022-12-01T11:13:34.021Z,7.02
2022-12-01T11:16:06.623Z,6.99
2022-12-01T11:18:39.138Z,7.00
2022-12-01T11:21:27.882Z,6.98
2022-12-01T11:23:56.785Z,7.00
2022-12-01T11:26:33.211Z,6.98
2022-12-01T11:29:27.581Z,6.97
2022-12-01T11:31:56.126Z,7.01
2022-12-01T11:34:34.601Z,6.98
2022-12-01T11:37:17.127Z,7.03
2022-12-01T11:39:48.342Z,7.05
2022-12-01T11:42:34.308Z,6.97
2022-12-01T11:45:24.942Z,6.92
2022-12-01T11:48:21.163Z,6.91
2022-12-01T11:51:19.455Z,6.90
2022-12-01T11:53:47.405Z,6.91
2022-12-01T11:56:28.671Z,6.96
2022-12-01T11:59:15.646Z,6.92
2022-12-01T12:02:21.110Z,6.89
2022-12-01T12:06:38.837Z,6.90
2022-12-01T12:09:21.696Z,6.84
2022-12-01T12:12:26.644Z,6.84
2022-12-01T12:15:44.272Z,6.87
2022-12-01T12:19:00.406Z,6.86
2022-12-01T12:22:05.223Z,6.82
2022-12-01T12:25:27.431Z,6.83
2022-12-01T12:28:52.643Z,6.82
2022-12-01T12:32:26.738Z,6.80
2022-12-01T12:35:06.048Z,6.79
2022-12-01T12:38:09.091Z,6.82
2022-12-01T12:41:15.852Z,6.82
2022-12-01T12:44:30.016Z,6.84
2022-12-01T12:47:31.582Z,6.87
2022-12-01T12:50:45.188Z,6.89
2022-12-01T12:53:27.035Z,6.91
2022-12-01T12:56:04.673Z,6.94
2022-12-01T12:58:47.446Z,7.01
2022-12-01T13:01:40.492Z,7.05
2022-12-01T13:04:18.371Z,7.11
2022-12-01T13:07:18.983Z,7.15
2022-12-01T13:10:00.788Z,7.16
2022-12-01T13:12:41.872Z,7.41
2022-12-01T13:15:20.723Z,7.59
2022-12-01T13:18:29.303Z,7.66
2022-12-01T13:20:58.438Z,7.77
2022-12-01T13:23:26.370Z,7.77
2022-12-01T13:26:00.482Z,7.78
2022-12-01T13:29:04.557Z,7.77
2022-12-01T13:31:49.396Z,7.70
2022-12-01T13:34:40.571Z,7.66
2022-12-01T13:37:15.859Z,7.62
2022-12-01T13:39:45.306Z,7.57
2022-12-01T13:42:26.980Z,7.51
2022-12-01T13:45:07.073Z,7.52
2022-12-01T13:47:57.038Z,7.49
2022-12-01T13:51:03.621Z,7.46
2022-12-01T13:53:39.466Z,7.35
2022-12-01T13:56:43.967Z,7.30
2022-12-01T14:00:03.268Z,7.21
2022-12-01T14:02:39.777Z,7.11
2022-12-01T14:05:24.914Z,7.02
2022-12-01T14:07:54.638Z,6.96
2022-12-01T14:10:31.357Z,6.92
2022-12-01T14:13:06.573Z,6.91
2022-12-01T14:15:42.678Z,6.86
2022-12-01T14:18:56.814Z,6.82
2022-12-01T14:21:49.590Z,6.77
2022-12-01T14:24:35.342Z,6.74
2022-12-01T14:27:05.603Z,6.73
2022-12-01T14:29:38.806Z,6.68
2022-12-01T14:32:09.114Z,6.66
2022-12-01T14:34:39.039Z,6.61
2022-12-01T14:37:19.772Z,6.56
2022-12-01T14:40:13.590Z,6.57
2022-12-01T14:43:05.862Z,6.55
2022-12-01T14:45:48.400Z,6.50
2022-12-01T14:48:26.959Z,6.50
2022-12-01T14:51:27.986Z,6.50
2022-12-01T14:53:58.289Z,6.49
2022-12-01T14:56:27.375Z,6.50
2022-12-01T14:59:13.692Z,6.54
2022-12-01T15:01:41.607Z,6.49
2022-12-01T15:04:08.862Z,6.48
2022-12-01T15:06:37.916Z,6.45
2022-12-01T15:09:36.171Z,6.44
2022-12-01T15:12:09.400Z,6.44
2022-12-01T15:14:49.374Z,6.41
2022-12-01T15:17:34.636Z,6.39
2022-12-01T15:20:03.942Z,6.40
2022-12-01T15:22:34.101Z,6.36
2022-12-01T15:25:14.976Z,6.33
2022-12-01T15:27:44.140Z,6.27
2022-12-01T15:30:18.783Z,6.24
2022-12-01T15:32:46.413Z,6.24
2022-12-01T15:35:23.630Z,6.21
2022-12-01T15:37:53.461Z,6.15
2022-12-01T15:43:23.111Z,6.06
2022-12-01T15:46:10.873Z,6.05
2022-12-01T15:48:38.969Z,6.07
2022-12-01T15:51:28.341Z,6.05
2022-12-01T15:54:01.461Z,6.06
2022-12-01T15:56:41.376Z,6.06
2022-12-01T15:59:12.803Z,6.10
2022-12-01T16:01:44.294Z,6.08
2022-12-01T16:04:35.387Z,6.06
2022-12-01T16:07:10.835Z,6.08
2022-12-01T16:10:00.737Z,6.06
2022-12-01T16:12:37.099Z,6.05
2022-12-01T16:15:18.663Z,6.08
2022-12-01T16:17:53.817Z,6.08
2022-12-01T16:20:33.828Z,6.09
2022-12-01T16:23:15.464Z,6.10
2022-12-01T16:25:47.846Z,6.09
2022-12-01T16:28:35.762Z,6.09
2022-12-01T16:31:05.710Z,6.10
2022-12-01T16:33:38.800Z,6.09
2022-12-01T16:36:06.907Z,6.12
2022-12-01T16:38:34.168Z,6.10
2022-12-01T16:41:15.703Z,6.09
2022-12-01T16:43:59.208Z,6.07
2022-12-01T16:46:30.244Z,6.08
2022-12-01T16:48:57.519Z,6.10
2022-12-01T16:51:35.590Z,6.05
2022-12-01T16:54:10.373Z,6.03
2022-12-01T16:56:37.550Z,6.01
2022-12-01T16:59:04.981Z,6.06
2022-12-01T17:01:32.957Z,6.04
2022-12-01T17:04:04.675Z,5.98
2022-12-01T17:06:34.556Z,5.93
2022-12-01T17:09:01.764Z,5.91
2022-12-01T17:11:28.913Z,5.90
2022-12-01T17:13:56.083Z,5.86
2022-12-01T17:16:23.408Z,5.88
2022-12-01T17:18:50.686Z,5.86
2022-12-01T17:21:18.183Z,5.85
2022-12-01T17:23:45.779Z,5.84
2022-12-01T17:26:19.160Z,5.78
2022-12-01T17:28:47.146Z,5.82
2022-12-01T17:31:15.615Z,5.81
2022-12-01T17:33:43.225Z,5.79
2022-12-01T17:36:15.850Z,5.76
2022-12-01T17:38:46.461Z,5.74
2022-12-01T17:41:21.943Z,5.73
2022-12-01T17:43:49.631Z,5.72
2022-12-01T17:46:17.323Z,5.70
2022-12-01T17:48:47.071Z,5.68
2022-12-01T17:51:15.472Z,5.69
2022-12-01T17:53:42.772Z,5.69
2022-12-01T17:56:14.260Z,5.69
2022-12-01T17:58:42.774Z,5.71
2022-12-01T18:01:17.528Z,5.71
2022-12-01T18:03:45.610Z,5.71
2022-12-01T18:06:14.035Z,5.71
2022-12-01T18:08:42.789Z,5.71
2022-12-01T18:11:16.961Z,5.71
2022-12-01T18:13:49.321Z,5.74
2022-12-01T18:16:25.605Z,5.73
2022-12-01T18:18:55.083Z,5.73
2022-12-01T18:21:25.236Z,5.71
2022-12-01T18:24:03.173Z,5.70
2022-12-01T18:26:35.643Z,5.71
2022-12-01T18:29:16.058Z,5.69
2022-12-01T18:31:43.632Z,5.69
2022-12-01T18:34:12.392Z,5.68
2022-12-01T18:36:41.699Z,5.67
2022-12-01T18:39:11.558Z,5.64
2022-12-01T18:41:39.901Z,5.64
2022-12-01T18:44:07.342Z,5.62
2022-12-01T18:46:35.167Z,5.61
2022-12-01T18:49:03.055Z,5.59
2022-12-01T18:51:34.900Z,5.59
2022-12-01T18:54:06.246Z,5.58
2022-12-01T18:56:34.442Z,5.58
2022-12-01T18:59:08.437Z,5.60
2022-12-01T19:01:43.941Z,5.57
2022-12-01T19:04:16.511Z,5.55
2022-12-01T19:06:46.028Z,5.54
2022-12-01T19:09:16.118Z,5.55
2022-12-01T19:11:44.332Z,5.56
2022-12-01T19:14:17.844Z,5.54
2022-12-01T19:16:47.007Z,5.53
2022-12-01T19:19:14.342Z,5.52
2022-12-01T19:21:42.881Z,5.49
2022-12-01T19:24:10.155Z,5.45
2022-12-01T19:26:37.707Z,5.41
2022-12-01T19:29:05.780Z,5.41
2022-12-01T19:31:33.041Z,5.42
2022-12-01T19:34:04.844Z,5.45
2022-12-01T19:36:32.120Z,5.44
2022-12-01T19:39:03.998Z,5.44
2022-12-01T19:41:34.619Z,5.44
2022-12-01T19:44:01.947Z,5.44
2022-12-01T19:46:29.184Z,5.47
2022-12-01T19:49:01.395Z,5.43
2022-12-01T19:51:40.179Z,5.46
2022-12-01T19:54:16.992Z,5.45
2022-12-01T19:56:44.930Z,5.46
2022-12-01T19:59:13.606Z,5.43
2022-12-01T20:01:41.537Z,5.42
2022-12-01T20:04:09.059Z,5.41
2022-12-01T20:06:37.848Z,5.42
2022-12-01T20:09:07.781Z,5.42
2022-12-01T20:11:36.241Z,5.42
2022-12-01T20:14:07.661Z,5.45
2022-12-01T20:16:35.270Z,5.43
2022-12-01T20:19:04.888Z,5.41
2022-12-01T20:21:42.140Z,5.41
2022-12-01T20:24:19.894Z,5.36
2022-12-01T20:26:56.655Z,5.29
2022-12-01T20:29:28.996Z,5.29
2022-12-01T20:32:00.149Z,5.28
2022-12-01T20:34:34.951Z,5.29
2022-12-01T20:37:03.041Z,5.25
2022-12-01T20:39:35.672Z,5.21
2022-12-01T20:42:05.986Z,5.22
2022-12-01T20:44:33.287Z,5.21
2022-12-01T20:47:00.811Z,5.20
2022-12-01T20:49:27.980Z,5.24
2022-12-01T20:51:55.253Z,5.21
2022-12-01T20:54:30.436Z,5.22
2022-12-01T20:56:58.938Z,5.20
2022-12-01T20:59:27.400Z,5.21
2022-12-01T21:01:55.527Z,5.18
2022-12-01T21:04:22.821Z,5.18
2022-12-01T21:06:50.191Z,5.19
2022-12-01T21:09:18.137Z,5.23
2022-12-01T21:12:08.561Z,5.20
2022-12-01T21:15:01.508Z,5.21
2022-12-01T21:18:05.156Z,5.21
2022-12-01T21:20:45.766Z,5.19
2022-12-01T21:23:16.318Z,5.18
2022-12-01T21:25:44.647Z,5.15
2022-12-01T21:28:22.340Z,5.17
2022-12-01T21:31:17.396Z,5.19
2022-12-01T21:33:44.779Z,5.19
2022-12-01T21:36:26.053Z,5.22
2022-12-01T21:39:15.539Z,5.19
2022-12-01T21:41:43.004Z,5.17
2022-12-01T21:44:21.553Z,5.18
2022-12-01T21:46:57.962Z,5.16
2022-12-01T21:49:40.072Z,5.17
2022-12-01T21:52:30.420Z,5.14
2022-12-01T21:55:17.644Z,5.14
2022-12-01T21:57:52.165Z,5.14
2022-12-01T22:00:28.704Z,5.12
2022-12-01T22:03:29.506Z,5.14
2022-12-01T22:09:31.391Z,5.07
2022-12-01T22:12:15.065Z,5.07
2022-12-01T22:14:42.309Z,5.10
2022-12-01T22:17:09.333Z,5.09
2022-12-01T22:19:46.783Z,5.07
2022-12-01T22:22:27.737Z,5.08
2022-12-01T22:25:07.446Z,5.09
2022-12-01T22:27:40.869Z,5.08
2022-12-01T22:30:07.930Z,5.10
2022-12-01T22:32:38.107Z,5.08
2022-12-01T22:35:45.273Z,5.05
2022-12-01T22:38:43.186Z,5.03
2022-12-01T22:41:16.527Z,5.01
2022-12-01T22:43:44.668Z,5.02
2022-12-01T22:46:26.379Z,5.01
2022-12-01T22:49:08.667Z,5.00
2022-12-01T22:51:59.974Z,5.00
2022-12-01T22:54:38.941Z,4.98
2022-12-01T22:57:19.106Z,4.97
2022-12-01T22:59:47.745Z,4.99
2022-12-01T23:02:35.589Z,5.01
2022-12-01T23:05:28.958Z,5.00
2022-12-01T23:07:57.522Z,4.97
2022-12-01T23:10:35.421Z,4.94
2022-12-01T23:13:23.126Z,4.88
2022-12-01T23:15:56.201Z,4.94
2022-12-01T23:18:32.018Z,4.97
2022-12-01T23:21:02.681Z,4.96
2022-12-01T23:23:37.183Z,4.98
2022-12-01T23:26:08.911Z,4.99
2022-12-01T23:28:39.363Z,4.96
2022-12-01T23:31:06.528Z,4.96
2022-12-01T23:33:35.497Z,4.90
2022-12-01T23:36:25.974Z,4.89
2022-12-01T23:39:02.142Z,4.85
2022-12-01T23:41:45.914Z,4.87
2022-12-01T23:44:49.657Z,4.82
2022-12-01T23:47:26.694Z,4.83
2022-12-01T23:50:03.162Z,4.83
2022-12-01T23:52:36.966Z,4.84
2022-12-01T23:55:28.869Z,4.85
2022-12-01T23:57:57.006Z,4.83
